sensor_id;sensor_type;location;lat;lon;timestamp;P1;durP1;ratioP1;P2;durP2;ratioP2
59468;SDS011;45277;52.768;18.262;2023-11-21T00:00:53;30.73;;;15.65;;
59468;SDS011;45277;52.768;18.262;2023-11-21T00:02:43;30.92;;;16.23;;
59468;SDS011;45277;52.768;18.262;2023-11-21T00:04:16;30.40;;;14.20;;
59468;SDS011;45277;52.768;18.262;2023-11-21T00:05:47;28.17;;;13.43;;
59468;SDS011;45277;52.768;18.262;2023-11-21T00:07:19;22.88;;;13.15;;
59468;SDS011;45277;52.768;18.262;2023-11-21T00:08:51;25.42;;;13.05;;
59468;SDS011;45277;52.768;18.262;2023-11-21T00:10:23;29.30;;;15.07;;
59468;SDS011;45277;52.768;18.262;2023-11-21T00:11:54;31.95;;;15.65;;
59468;SDS011;45277;52.768;18.262;2023-11-21T00:13:26;29.35;;;14.30;;
59468;SDS011;45277;52.768;18.262;2023-11-21T00:14:57;28.75;;;15.00;;
59468;SDS011;45277;52.768;18.262;2023-11-21T00:16:29;26.80;;;14.88;;
59468;SDS011;45277;52.768;18.262;2023-11-21T00:18:00;27.05;;;14.40;;
59468;SDS011;45277;52.768;18.262;2023-11-21T00:19:31;26.77;;;14.02;;
59468;SDS011;45277;52.768;18.262;2023-11-21T00:21:06;25.98;;;15.02;;
59468;SDS011;45277;52.768;18.262;2023-11-21T00:22:37;27.80;;;14.57;;
59468;SDS011;45277;52.768;18.262;2023-11-21T00:24:09;28.00;;;14.63;;
59468;SDS011;45277;52.768;18.262;2023-11-21T00:25:41;33.25;;;15.27;;
59468;SDS011;45277;52.768;18.262;2023-11-21T00:27:12;23.65;;;13.60;;
59468;SDS011;45277;52.768;18.262;2023-11-21T00:28:44;23.52;;;14.10;;
59468;SDS011;45277;52.768;18.262;2023-11-21T00:30:16;21.13;;;12.90;;
59468;SDS011;45277;52.768;18.262;2023-11-21T00:31:48;26.15;;;13.40;;
59468;SDS011;45277;52.768;18.262;2023-11-21T00:33:19;25.00;;;13.82;;
59468;SDS011;45277;52.768;18.262;2023-11-21T00:34:50;26.50;;;13.75;;
59468;SDS011;45277;52.768;18.262;2023-11-21T00:36:22;21.42;;;13.45;;
59468;SDS011;45277;52.768;18.262;2023-11-21T00:37:53;23.35;;;13.82;;
59468;SDS011;45277;52.768;18.262;2023-11-21T00:39:24;26.70;;;14.07;;
59468;SDS011;45277;52.768;18.262;2023-11-21T00:40:56;27.83;;;14.85;;
59468;SDS011;45277;52.768;18.262;2023-11-21T00:42:27;25.77;;;14.02;;
59468;SDS011;45277;52.768;18.262;2023-11-21T00:44:00;25.63;;;13.10;;
59468;SDS011;45277;52.768;18.262;2023-11-21T00:45:31;25.63;;;14.45;;
59468;SDS011;45277;52.768;18.262;2023-11-21T00:47:02;24.35;;;12.77;;
59468;SDS011;45277;52.768;18.262;2023-11-21T00:48:34;19.45;;;11.77;;
59468;SDS011;45277;52.768;18.262;2023-11-21T00:50:05;21.42;;;12.32;;
59468;SDS011;45277;52.768;18.262;2023-11-21T00:51:37;25.25;;;12.80;;
59468;SDS011;45277;52.768;18.262;2023-11-21T00:53:09;22.15;;;12.15;;
59468;SDS011;45277;52.768;18.262;2023-11-21T00:54:41;24.40;;;11.98;;
59468;SDS011;45277;52.768;18.262;2023-11-21T00:56:13;21.85;;;12.75;;
59468;SDS011;45277;52.768;18.262;2023-11-21T00:57:45;25.92;;;13.57;;
59468;SDS011;45277;52.768;18.262;2023-11-21T00:59:17;25.63;;;12.60;;
59468;SDS011;45277;52.768;18.262;2023-11-21T01:00:48;22.20;;;11.80;;
59468;SDS011;45277;52.768;18.262;2023-11-21T01:02:19;22.60;;;12.18;;
59468;SDS011;45277;52.768;18.262;2023-11-21T01:03:51;23.65;;;12.77;;
59468;SDS011;45277;52.768;18.262;2023-11-21T01:05:22;22.15;;;13.32;;
59468;SDS011;45277;52.768;18.262;2023-11-21T01:06:54;18.45;;;11.50;;
59468;SDS011;45277;52.768;18.262;2023-11-21T01:08:25;17.75;;;11.45;;
59468;SDS011;45277;52.768;18.262;2023-11-21T01:09:56;20.95;;;11.38;;
59468;SDS011;45277;52.768;18.262;2023-11-21T01:11:28;20.30;;;10.82;;
59468;SDS011;45277;52.768;18.262;2023-11-21T01:12:59;19.77;;;11.68;;
59468;SDS011;45277;52.768;18.262;2023-11-21T01:14:31;19.23;;;11.85;;
59468;SDS011;45277;52.768;18.262;2023-11-21T01:16:02;18.05;;;10.73;;
59468;SDS011;45277;52.768;18.262;2023-11-21T01:17:34;19.55;;;11.77;;
59468;SDS011;45277;52.768;18.262;2023-11-21T01:19:06;22.85;;;11.90;;
59468;SDS011;45277;52.768;18.262;2023-11-21T01:20:37;24.73;;;13.02;;
59468;SDS011;45277;52.768;18.262;2023-11-21T01:22:09;25.92;;;11.55;;
59468;SDS011;45277;52.768;18.262;2023-11-21T01:23:42;22.55;;;12.85;;
59468;SDS011;45277;52.768;18.262;2023-11-21T01:25:14;24.17;;;12.75;;
59468;SDS011;45277;52.768;18.262;2023-11-21T01:26:46;24.40;;;13.52;;
59468;SDS011;45277;52.768;18.262;2023-11-21T01:28:17;26.45;;;12.90;;
59468;SDS011;45277;52.768;18.262;2023-11-21T01:29:50;24.33;;;12.90;;
59468;SDS011;45277;52.768;18.262;2023-11-21T01:31:24;23.40;;;13.63;;
59468;SDS011;45277;52.768;18.262;2023-11-21T01:32:58;23.13;;;12.63;;
59468;SDS011;45277;52.768;18.262;2023-11-21T01:34:29;20.85;;;12.07;;
59468;SDS011;45277;52.768;18.262;2023-11-21T01:36:01;27.73;;;13.13;;
59468;SDS011;45277;52.768;18.262;2023-11-21T01:37:32;20.38;;;11.82;;
59468;SDS011;45277;52.768;18.262;2023-11-21T01:39:04;21.98;;;12.15;;
59468;SDS011;45277;52.768;18.262;2023-11-21T01:40:39;21.75;;;12.30;;
59468;SDS011;45277;52.768;18.262;2023-11-21T01:42:10;19.15;;;10.98;;
59468;SDS011;45277;52.768;18.262;2023-11-21T01:43:43;17.88;;;9.55;;
59468;SDS011;45277;52.768;18.262;2023-11-21T01:45:15;18.05;;;10.25;;
59468;SDS011;45277;52.768;18.262;2023-11-21T01:46:46;18.05;;;10.77;;
59468;SDS011;45277;52.768;18.262;2023-11-21T01:48:19;17.73;;;10.32;;
59468;SDS011;45277;52.768;18.262;2023-11-21T01:49:50;16.63;;;10.05;;
59468;SDS011;45277;52.768;18.262;2023-11-21T01:51:21;17.13;;;10.07;;
59468;SDS011;45277;52.768;18.262;2023-11-21T01:52:53;15.75;;;9.50;;
59468;SDS011;45277;52.768;18.262;2023-11-21T01:54:24;16.65;;;10.15;;
59468;SDS011;45277;52.768;18.262;2023-11-21T01:55:56;18.27;;;10.23;;
59468;SDS011;45277;52.768;18.262;2023-11-21T01:57:28;19.15;;;10.23;;
59468;SDS011;45277;52.768;18.262;2023-11-21T01:59:00;16.48;;;9.93;;
59468;SDS011;45277;52.768;18.262;2023-11-21T02:03:22;19.13;;;10.65;;
59468;SDS011;45277;52.768;18.262;2023-11-21T02:04:54;17.58;;;10.55;;
59468;SDS011;45277;52.768;18.262;2023-11-21T02:06:25;19.65;;;11.93;;
59468;SDS011;45277;52.768;18.262;2023-11-21T02:07:56;17.50;;;8.50;;
59468;SDS011;45277;52.768;18.262;2023-11-21T02:09:28;11.25;;;7.55;;
59468;SDS011;45277;52.768;18.262;2023-11-21T02:12:42;13.98;;;7.82;;
59468;SDS011;45277;52.768;18.262;2023-11-21T02:14:15;14.70;;;9.07;;
59468;SDS011;45277;52.768;18.262;2023-11-21T02:15:47;13.30;;;8.32;;
59468;SDS011;45277;52.768;18.262;2023-11-21T02:17:20;14.35;;;8.85;;
59468;SDS011;45277;52.768;18.262;2023-11-21T02:18:51;15.88;;;8.13;;
59468;SDS011;45277;52.768;18.262;2023-11-21T02:20:23;12.20;;;7.70;;
59468;SDS011;45277;52.768;18.262;2023-11-21T02:21:59;12.93;;;8.23;;
59468;SDS011;45277;52.768;18.262;2023-11-21T02:23:34;12.65;;;7.63;;
59468;SDS011;45277;52.768;18.262;2023-11-21T02:25:05;14.93;;;8.32;;
59468;SDS011;45277;52.768;18.262;2023-11-21T02:26:38;13.82;;;8.57;;
59468;SDS011;45277;52.768;18.262;2023-11-21T02:28:09;12.38;;;8.73;;
59468;SDS011;45277;52.768;18.262;2023-11-21T02:29:43;13.40;;;8.13;;
59468;SDS011;45277;52.768;18.262;2023-11-21T02:31:14;15.63;;;9.30;;
59468;SDS011;45277;52.768;18.262;2023-11-21T02:32:46;13.65;;;8.90;;
59468;SDS011;45277;52.768;18.262;2023-11-21T02:34:17;15.18;;;9.63;;
59468;SDS011;45277;52.768;18.262;2023-11-21T02:35:48;13.40;;;8.82;;
59468;SDS011;45277;52.768;18.262;2023-11-21T02:37:20;13.73;;;8.57;;
59468;SDS011;45277;52.768;18.262;2023-11-21T02:38:51;13.30;;;8.55;;
59468;SDS011;45277;52.768;18.262;2023-11-21T02:40:22;11.65;;;7.90;;
59468;SDS011;45277;52.768;18.262;2023-11-21T02:41:55;11.73;;;7.60;;
59468;SDS011;45277;52.768;18.262;2023-11-21T02:43:26;12.48;;;8.40;;
59468;SDS011;45277;52.768;18.262;2023-11-21T02:44:58;13.05;;;8.30;;
59468;SDS011;45277;52.768;18.262;2023-11-21T02:46:29;12.77;;;8.55;;
59468;SDS011;45277;52.768;18.262;2023-11-21T02:48:02;13.27;;;8.00;;
59468;SDS011;45277;52.768;18.262;2023-11-21T02:49:35;12.75;;;8.55;;
59468;SDS011;45277;52.768;18.262;2023-11-21T02:51:06;13.57;;;8.43;;
59468;SDS011;45277;52.768;18.262;2023-11-21T02:52:38;13.23;;;8.13;;
59468;SDS011;45277;52.768;18.262;2023-11-21T02:54:10;13.57;;;9.00;;
59468;SDS011;45277;52.768;18.262;2023-11-21T02:55:42;14.18;;;9.23;;
59468;SDS011;45277;52.768;18.262;2023-11-21T02:57:13;15.98;;;9.65;;
59468;SDS011;45277;52.768;18.262;2023-11-21T02:58:45;14.73;;;9.93;;
59468;SDS011;45277;52.768;18.262;2023-11-21T03:00:16;13.38;;;8.73;;
59468;SDS011;45277;52.768;18.262;2023-11-21T03:01:48;15.98;;;10.02;;
59468;SDS011;45277;52.768;18.262;2023-11-21T03:03:20;13.75;;;9.25;;
59468;SDS011;45277;52.768;18.262;2023-11-21T03:04:52;13.40;;;9.10;;
59468;SDS011;45277;52.768;18.262;2023-11-21T03:06:23;14.23;;;9.57;;
59468;SDS011;45277;52.768;18.262;2023-11-21T03:07:54;14.60;;;9.45;;
59468;SDS011;45277;52.768;18.262;2023-11-21T03:09:26;15.10;;;9.02;;
59468;SDS011;45277;52.768;18.262;2023-11-21T03:10:57;14.02;;;8.60;;
59468;SDS011;45277;52.768;18.262;2023-11-21T03:12:29;16.63;;;10.30;;
59468;SDS011;45277;52.768;18.262;2023-11-21T03:14:01;14.52;;;9.30;;
59468;SDS011;45277;52.768;18.262;2023-11-21T03:15:32;18.50;;;9.38;;
59468;SDS011;45277;52.768;18.262;2023-11-21T03:17:03;16.38;;;9.85;;
59468;SDS011;45277;52.768;18.262;2023-11-21T03:18:36;17.33;;;9.85;;
59468;SDS011;45277;52.768;18.262;2023-11-21T03:20:07;16.48;;;9.57;;
59468;SDS011;45277;52.768;18.262;2023-11-21T03:21:41;15.65;;;9.40;;
59468;SDS011;45277;52.768;18.262;2023-11-21T03:23:13;18.13;;;9.93;;
59468;SDS011;45277;52.768;18.262;2023-11-21T03:24:44;15.82;;;8.93;;
59468;SDS011;45277;52.768;18.262;2023-11-21T03:26:15;18.30;;;10.65;;
59468;SDS011;45277;52.768;18.262;2023-11-21T03:27:47;17.02;;;10.20;;
59468;SDS011;45277;52.768;18.262;2023-11-21T03:29:18;17.95;;;10.88;;
59468;SDS011;45277;52.768;18.262;2023-11-21T03:30:49;18.45;;;10.00;;
59468;SDS011;45277;52.768;18.262;2023-11-21T03:32:21;17.70;;;10.57;;
59468;SDS011;45277;52.768;18.262;2023-11-21T03:33:52;17.83;;;10.65;;
59468;SDS011;45277;52.768;18.262;2023-11-21T03:35:24;21.23;;;10.73;;
59468;SDS011;45277;52.768;18.262;2023-11-21T03:36:56;17.38;;;10.05;;
59468;SDS011;45277;52.768;18.262;2023-11-21T03:38:27;16.42;;;9.45;;
59468;SDS011;45277;52.768;18.262;2023-11-21T03:39:59;15.10;;;9.32;;
59468;SDS011;45277;52.768;18.262;2023-11-21T03:41:30;19.38;;;11.48;;
59468;SDS011;45277;52.768;18.262;2023-11-21T03:43:01;17.85;;;10.85;;
59468;SDS011;45277;52.768;18.262;2023-11-21T03:44:33;19.08;;;11.52;;
59468;SDS011;45277;52.768;18.262;2023-11-21T03:46:05;23.98;;;13.48;;
59468;SDS011;45277;52.768;18.262;2023-11-21T03:47:37;22.08;;;12.88;;
59468;SDS011;45277;52.768;18.262;2023-11-21T03:49:09;25.98;;;12.90;;
59468;SDS011;45277;52.768;18.262;2023-11-21T03:50:41;23.80;;;13.57;;
59468;SDS011;45277;52.768;18.262;2023-11-21T03:52:13;23.08;;;11.15;;
59468;SDS011;45277;52.768;18.262;2023-11-21T03:53:44;22.02;;;11.35;;
59468;SDS011;45277;52.768;18.262;2023-11-21T03:55:15;18.70;;;11.43;;
59468;SDS011;45277;52.768;18.262;2023-11-21T03:56:47;18.67;;;11.18;;
59468;SDS011;45277;52.768;18.262;2023-11-21T03:58:19;21.65;;;11.63;;
59468;SDS011;45277;52.768;18.262;2023-11-21T03:59:51;19.83;;;12.70;;
59468;SDS011;45277;52.768;18.262;2023-11-21T04:01:22;19.35;;;10.85;;
59468;SDS011;45277;52.768;18.262;2023-11-21T04:02:54;24.77;;;12.18;;
59468;SDS011;45277;52.768;18.262;2023-11-21T04:04:25;20.75;;;11.75;;
59468;SDS011;45277;52.768;18.262;2023-11-21T04:05:57;17.77;;;10.85;;
59468;SDS011;45277;52.768;18.262;2023-11-21T04:07:28;23.25;;;11.10;;
59468;SDS011;45277;52.768;18.262;2023-11-21T04:08:59;19.73;;;11.32;;
59468;SDS011;45277;52.768;18.262;2023-11-21T04:10:31;18.55;;;11.15;;
59468;SDS011;45277;52.768;18.262;2023-11-21T04:12:02;18.33;;;9.70;;
59468;SDS011;45277;52.768;18.262;2023-11-21T04:13:34;20.65;;;11.25;;
59468;SDS011;45277;52.768;18.262;2023-11-21T04:15:06;20.00;;;10.77;;
59468;SDS011;45277;52.768;18.262;2023-11-21T04:16:40;19.67;;;11.55;;
59468;SDS011;45277;52.768;18.262;2023-11-21T04:18:11;21.48;;;11.32;;
59468;SDS011;45277;52.768;18.262;2023-11-21T04:19:43;20.45;;;11.73;;
59468;SDS011;45277;52.768;18.262;2023-11-21T04:21:14;18.45;;;10.43;;
59468;SDS011;45277;52.768;18.262;2023-11-21T04:22:46;19.30;;;11.98;;
59468;SDS011;45277;52.768;18.262;2023-11-21T04:24:17;24.70;;;11.77;;
59468;SDS011;45277;52.768;18.262;2023-11-21T04:25:49;21.83;;;11.82;;
59468;SDS011;45277;52.768;18.262;2023-11-21T04:27:20;21.13;;;12.65;;
59468;SDS011;45277;52.768;18.262;2023-11-21T04:28:52;23.45;;;13.13;;
59468;SDS011;45277;52.768;18.262;2023-11-21T04:30:23;24.75;;;12.38;;
59468;SDS011;45277;52.768;18.262;2023-11-21T04:31:55;25.52;;;13.60;;
59468;SDS011;45277;52.768;18.262;2023-11-21T04:33:26;25.48;;;14.45;;
59468;SDS011;45277;52.768;18.262;2023-11-21T04:34:57;23.90;;;14.10;;
59468;SDS011;45277;52.768;18.262;2023-11-21T04:36:29;19.98;;;12.52;;
59468;SDS011;45277;52.768;18.262;2023-11-21T04:38:01;25.48;;;13.32;;
59468;SDS011;45277;52.768;18.262;2023-11-21T04:39:33;25.35;;;13.70;;
59468;SDS011;45277;52.768;18.262;2023-11-21T04:41:05;24.58;;;13.45;;
59468;SDS011;45277;52.768;18.262;2023-11-21T04:42:36;24.65;;;13.50;;
59468;SDS011;45277;52.768;18.262;2023-11-21T04:44:07;29.02;;;13.77;;
59468;SDS011;45277;52.768;18.262;2023-11-21T04:45:39;24.40;;;13.68;;
59468;SDS011;45277;52.768;18.262;2023-11-21T04:47:11;22.05;;;13.27;;
59468;SDS011;45277;52.768;18.262;2023-11-21T04:48:43;22.88;;;12.95;;
59468;SDS011;45277;52.768;18.262;2023-11-21T04:50:15;24.50;;;13.65;;
59468;SDS011;45277;52.768;18.262;2023-11-21T04:51:46;22.73;;;12.57;;
59468;SDS011;45277;52.768;18.262;2023-11-21T04:53:17;29.38;;;14.55;;
59468;SDS011;45277;52.768;18.262;2023-11-21T04:54:49;25.65;;;13.57;;
59468;SDS011;45277;52.768;18.262;2023-11-21T04:56:20;22.80;;;13.15;;
59468;SDS011;45277;52.768;18.262;2023-11-21T04:57:51;27.52;;;13.50;;
59468;SDS011;45277;52.768;18.262;2023-11-21T04:59:23;22.42;;;13.15;;
59468;SDS011;45277;52.768;18.262;2023-11-21T05:00:57;26.63;;;14.05;;
59468;SDS011;45277;52.768;18.262;2023-11-21T05:02:28;26.48;;;14.15;;
59468;SDS011;45277;52.768;18.262;2023-11-21T05:04:00;24.27;;;14.18;;
59468;SDS011;45277;52.768;18.262;2023-11-21T05:05:31;34.90;;;14.77;;
59468;SDS011;45277;52.768;18.262;2023-11-21T05:07:03;25.70;;;13.75;;
59468;SDS011;45277;52.768;18.262;2023-11-21T05:08:34;26.27;;;14.45;;
59468;SDS011;45277;52.768;18.262;2023-11-21T05:10:07;25.75;;;13.98;;
59468;SDS011;45277;52.768;18.262;2023-11-21T05:11:42;23.80;;;13.30;;
59468;SDS011;45277;52.768;18.262;2023-11-21T05:13:13;25.58;;;13.35;;
59468;SDS011;45277;52.768;18.262;2023-11-21T05:14:47;26.42;;;13.50;;
59468;SDS011;45277;52.768;18.262;2023-11-21T05:16:19;23.88;;;13.88;;
59468;SDS011;45277;52.768;18.262;2023-11-21T05:17:51;22.13;;;13.45;;
59468;SDS011;45277;52.768;18.262;2023-11-21T05:19:22;22.08;;;12.35;;
59468;SDS011;45277;52.768;18.262;2023-11-21T05:20:53;25.42;;;14.75;;
59468;SDS011;45277;52.768;18.262;2023-11-21T05:22:25;24.30;;;12.55;;
59468;SDS011;45277;52.768;18.262;2023-11-21T05:23:56;23.15;;;14.50;;
59468;SDS011;45277;52.768;18.262;2023-11-21T05:25:27;24.02;;;13.63;;
59468;SDS011;45277;52.768;18.262;2023-11-21T05:26:59;24.73;;;14.15;;
59468;SDS011;45277;52.768;18.262;2023-11-21T05:28:30;23.23;;;14.23;;
59468;SDS011;45277;52.768;18.262;2023-11-21T05:30:02;24.40;;;13.88;;
59468;SDS011;45277;52.768;18.262;2023-11-21T05:31:40;22.90;;;13.98;;
59468;SDS011;45277;52.768;18.262;2023-11-21T05:33:11;23.92;;;14.50;;
59468;SDS011;45277;52.768;18.262;2023-11-21T05:34:42;22.25;;;13.20;;
59468;SDS011;45277;52.768;18.262;2023-11-21T05:36:14;27.98;;;14.88;;
59468;SDS011;45277;52.768;18.262;2023-11-21T05:37:45;26.95;;;14.20;;
59468;SDS011;45277;52.768;18.262;2023-11-21T05:39:16;25.25;;;13.55;;
59468;SDS011;45277;52.768;18.262;2023-11-21T05:40:49;23.55;;;13.55;;
59468;SDS011;45277;52.768;18.262;2023-11-21T05:42:20;27.55;;;14.27;;
59468;SDS011;45277;52.768;18.262;2023-11-21T05:43:52;23.05;;;12.80;;
59468;SDS011;45277;52.768;18.262;2023-11-21T05:45:24;26.27;;;14.77;;
59468;SDS011;45277;52.768;18.262;2023-11-21T05:46:56;26.30;;;14.60;;
59468;SDS011;45277;52.768;18.262;2023-11-21T05:48:29;24.98;;;13.90;;
59468;SDS011;45277;52.768;18.262;2023-11-21T05:50:00;24.88;;;13.77;;
59468;SDS011;45277;52.768;18.262;2023-11-21T05:51:32;28.33;;;14.18;;
59468;SDS011;45277;52.768;18.262;2023-11-21T05:53:03;24.75;;;14.30;;
59468;SDS011;45277;52.768;18.262;2023-11-21T05:54:35;24.38;;;13.77;;
59468;SDS011;45277;52.768;18.262;2023-11-21T05:56:07;29.85;;;15.77;;
59468;SDS011;45277;52.768;18.262;2023-11-21T05:57:38;27.15;;;14.68;;
59468;SDS011;45277;52.768;18.262;2023-11-21T05:59:11;29.02;;;14.55;;
59468;SDS011;45277;52.768;18.262;2023-11-21T06:00:42;31.05;;;14.93;;
59468;SDS011;45277;52.768;18.262;2023-11-21T06:02:13;25.27;;;14.40;;
59468;SDS011;45277;52.768;18.262;2023-11-21T06:03:45;25.92;;;15.48;;
59468;SDS011;45277;52.768;18.262;2023-11-21T06:05:17;30.63;;;15.15;;
59468;SDS011;45277;52.768;18.262;2023-11-21T06:06:50;31.30;;;16.88;;
59468;SDS011;45277;52.768;18.262;2023-11-21T06:08:23;27.77;;;14.70;;
59468;SDS011;45277;52.768;18.262;2023-11-21T06:09:55;28.73;;;16.13;;
59468;SDS011;45277;52.768;18.262;2023-11-21T06:11:26;32.58;;;16.38;;
59468;SDS011;45277;52.768;18.262;2023-11-21T06:12:57;30.80;;;15.93;;
59468;SDS011;45277;52.768;18.262;2023-11-21T06:14:29;30.13;;;15.38;;
59468;SDS011;45277;52.768;18.262;2023-11-21T06:16:00;31.00;;;16.85;;
59468;SDS011;45277;52.768;18.262;2023-11-21T06:17:32;28.98;;;16.35;;
59468;SDS011;45277;52.768;18.262;2023-11-21T06:19:04;29.25;;;15.85;;
59468;SDS011;45277;52.768;18.262;2023-11-21T06:20:36;26.20;;;14.80;;
59468;SDS011;45277;52.768;18.262;2023-11-21T06:22:09;32.60;;;17.00;;
59468;SDS011;45277;52.768;18.262;2023-11-21T06:23:41;32.72;;;16.13;;
59468;SDS011;45277;52.768;18.262;2023-11-21T06:25:13;31.77;;;16.92;;
59468;SDS011;45277;52.768;18.262;2023-11-21T06:26:45;35.65;;;17.33;;
59468;SDS011;45277;52.768;18.262;2023-11-21T06:28:16;34.67;;;18.48;;
59468;SDS011;45277;52.768;18.262;2023-11-21T06:29:48;32.33;;;17.08;;
59468;SDS011;45277;52.768;18.262;2023-11-21T06:31:19;36.38;;;18.23;;
59468;SDS011;45277;52.768;18.262;2023-11-21T06:32:52;30.25;;;16.05;;
59468;SDS011;45277;52.768;18.262;2023-11-21T06:34:23;33.72;;;17.80;;
59468;SDS011;45277;52.768;18.262;2023-11-21T06:35:55;31.83;;;18.48;;
59468;SDS011;45277;52.768;18.262;2023-11-21T06:37:26;30.40;;;16.40;;
59468;SDS011;45277;52.768;18.262;2023-11-21T06:38:58;30.45;;;15.77;;
59468;SDS011;45277;52.768;18.262;2023-11-21T06:40:30;31.35;;;16.80;;
59468;SDS011;45277;52.768;18.262;2023-11-21T06:42:04;31.98;;;17.13;;
59468;SDS011;45277;52.768;18.262;2023-11-21T06:43:35;33.20;;;17.42;;
59468;SDS011;45277;52.768;18.262;2023-11-21T06:45:07;38.95;;;17.90;;
59468;SDS011;45277;52.768;18.262;2023-11-21T06:46:41;32.28;;;17.38;;
59468;SDS011;45277;52.768;18.262;2023-11-21T06:48:13;33.95;;;17.75;;
59468;SDS011;45277;52.768;18.262;2023-11-21T06:49:44;37.65;;;18.75;;
59468;SDS011;45277;52.768;18.262;2023-11-21T06:51:18;31.27;;;17.58;;
59468;SDS011;45277;52.768;18.262;2023-11-21T06:52:49;31.77;;;16.42;;
59468;SDS011;45277;52.768;18.262;2023-11-21T06:54:21;32.40;;;17.83;;
59468;SDS011;45277;52.768;18.262;2023-11-21T06:55:53;33.75;;;16.35;;
59468;SDS011;45277;52.768;18.262;2023-11-21T06:57:24;32.75;;;16.92;;
59468;SDS011;45277;52.768;18.262;2023-11-21T06:58:55;33.72;;;17.55;;
59468;SDS011;45277;52.768;18.262;2023-11-21T07:00:27;31.45;;;17.08;;
59468;SDS011;45277;52.768;18.262;2023-11-21T07:01:58;29.40;;;16.15;;
59468;SDS011;45277;52.768;18.262;2023-11-21T07:03:30;34.70;;;17.92;;
59468;SDS011;45277;52.768;18.262;2023-11-21T07:05:01;31.70;;;17.42;;
59468;SDS011;45277;52.768;18.262;2023-11-21T07:06:32;31.75;;;17.63;;
59468;SDS011;45277;52.768;18.262;2023-11-21T07:08:04;36.00;;;18.10;;
59468;SDS011;45277;52.768;18.262;2023-11-21T07:09:36;31.65;;;16.83;;
59468;SDS011;45277;52.768;18.262;2023-11-21T07:11:07;34.95;;;18.55;;
59468;SDS011;45277;52.768;18.262;2023-11-21T07:12:39;34.15;;;17.75;;
59468;SDS011;45277;52.768;18.262;2023-11-21T07:14:10;32.42;;;16.73;;
59468;SDS011;45277;52.768;18.262;2023-11-21T07:15:42;37.13;;;17.17;;
59468;SDS011;45277;52.768;18.262;2023-11-21T07:17:14;36.90;;;17.05;;
59468;SDS011;45277;52.768;18.262;2023-11-21T07:18:47;34.33;;;17.50;;
59468;SDS011;45277;52.768;18.262;2023-11-21T07:20:19;30.55;;;16.40;;
59468;SDS011;45277;52.768;18.262;2023-11-21T07:21:52;35.75;;;17.85;;
59468;SDS011;45277;52.768;18.262;2023-11-21T07:23:23;34.35;;;17.08;;
59468;SDS011;45277;52.768;18.262;2023-11-21T07:24:55;29.77;;;16.65;;
59468;SDS011;45277;52.768;18.262;2023-11-21T07:26:30;35.47;;;17.75;;
59468;SDS011;45277;52.768;18.262;2023-11-21T07:28:01;30.35;;;16.33;;
59468;SDS011;45277;52.768;18.262;2023-11-21T07:29:32;35.20;;;16.90;;
59468;SDS011;45277;52.768;18.262;2023-11-21T07:31:05;32.65;;;17.20;;
59468;SDS011;45277;52.768;18.262;2023-11-21T07:32:36;35.40;;;17.48;;
59468;SDS011;45277;52.768;18.262;2023-11-21T07:34:10;35.08;;;17.10;;
59468;SDS011;45277;52.768;18.262;2023-11-21T07:35:42;30.10;;;15.43;;
59468;SDS011;45277;52.768;18.262;2023-11-21T07:37:14;35.20;;;17.42;;
59468;SDS011;45277;52.768;18.262;2023-11-21T07:38:45;31.67;;;17.02;;
59468;SDS011;45277;52.768;18.262;2023-11-21T07:40:17;36.58;;;17.60;;
59468;SDS011;45277;52.768;18.262;2023-11-21T07:41:49;34.28;;;18.88;;
59468;SDS011;45277;52.768;18.262;2023-11-21T07:43:20;30.73;;;16.60;;
59468;SDS011;45277;52.768;18.262;2023-11-21T07:44:52;34.00;;;16.85;;
59468;SDS011;45277;52.768;18.262;2023-11-21T07:46:25;30.80;;;17.42;;
59468;SDS011;45277;52.768;18.262;2023-11-21T07:47:57;35.33;;;17.02;;
59468;SDS011;45277;52.768;18.262;2023-11-21T07:49:29;32.75;;;16.67;;
59468;SDS011;45277;52.768;18.262;2023-11-21T07:51:02;34.05;;;17.17;;
59468;SDS011;45277;52.768;18.262;2023-11-21T07:52:34;33.83;;;17.15;;
59468;SDS011;45277;52.768;18.262;2023-11-21T07:54:05;26.55;;;15.23;;
59468;SDS011;45277;52.768;18.262;2023-11-21T07:55:37;31.00;;;15.88;;
59468;SDS011;45277;52.768;18.262;2023-11-21T07:57:08;31.27;;;16.92;;
59468;SDS011;45277;52.768;18.262;2023-11-21T07:58:42;35.85;;;16.48;;
59468;SDS011;45277;52.768;18.262;2023-11-21T08:00:13;26.33;;;14.82;;
59468;SDS011;45277;52.768;18.262;2023-11-21T08:01:46;31.27;;;15.55;;
59468;SDS011;45277;52.768;18.262;2023-11-21T08:03:17;32.90;;;16.77;;
59468;SDS011;45277;52.768;18.262;2023-11-21T08:04:49;30.33;;;15.82;;
59468;SDS011;45277;52.768;18.262;2023-11-21T08:06:21;31.42;;;15.85;;
59468;SDS011;45277;52.768;18.262;2023-11-21T08:07:52;30.98;;;16.02;;
59468;SDS011;45277;52.768;18.262;2023-11-21T08:09:23;29.70;;;16.08;;
59468;SDS011;45277;52.768;18.262;2023-11-21T08:10:56;29.75;;;16.92;;
59468;SDS011;45277;52.768;18.262;2023-11-21T08:12:27;28.00;;;15.52;;
59468;SDS011;45277;52.768;18.262;2023-11-21T08:13:59;32.58;;;17.42;;
59468;SDS011;45277;52.768;18.262;2023-11-21T08:15:30;34.38;;;17.50;;
59468;SDS011;45277;52.768;18.262;2023-11-21T08:17:04;30.70;;;16.25;;
59468;SDS011;45277;52.768;18.262;2023-11-21T08:18:36;38.10;;;17.35;;
59468;SDS011;45277;52.768;18.262;2023-11-21T08:20:07;30.70;;;15.73;;
59468;SDS011;45277;52.768;18.262;2023-11-21T08:21:41;30.90;;;15.95;;
59468;SDS011;45277;52.768;18.262;2023-11-21T08:23:13;29.83;;;15.02;;
59468;SDS011;45277;52.768;18.262;2023-11-21T08:24:46;26.42;;;15.25;;
59468;SDS011;45277;52.768;18.262;2023-11-21T08:26:17;30.10;;;15.18;;
59468;SDS011;45277;52.768;18.262;2023-11-21T08:27:49;33.58;;;15.38;;
59468;SDS011;45277;52.768;18.262;2023-11-21T08:29:20;29.75;;;15.85;;
59468;SDS011;45277;52.768;18.262;2023-11-21T08:30:52;31.92;;;16.75;;
59468;SDS011;45277;52.768;18.262;2023-11-21T08:32:25;29.38;;;14.70;;
59468;SDS011;45277;52.768;18.262;2023-11-21T08:33:56;33.13;;;16.23;;
59468;SDS011;45277;52.768;18.262;2023-11-21T08:35:27;26.02;;;14.52;;
59468;SDS011;45277;52.768;18.262;2023-11-21T08:36:59;28.63;;;14.98;;
59468;SDS011;45277;52.768;18.262;2023-11-21T08:38:30;27.08;;;13.90;;
59468;SDS011;45277;52.768;18.262;2023-11-21T08:40:03;25.90;;;15.13;;
59468;SDS011;45277;52.768;18.262;2023-11-21T08:41:40;26.55;;;14.38;;
59468;SDS011;45277;52.768;18.262;2023-11-21T08:43:11;30.55;;;14.60;;
59468;SDS011;45277;52.768;18.262;2023-11-21T08:44:44;27.55;;;14.70;;
59468;SDS011;45277;52.768;18.262;2023-11-21T08:46:16;29.60;;;14.93;;
59468;SDS011;45277;52.768;18.262;2023-11-21T08:47:48;26.08;;;15.10;;
59468;SDS011;45277;52.768;18.262;2023-11-21T08:49:19;24.45;;;13.23;;
59468;SDS011;45277;52.768;18.262;2023-11-21T08:50:51;26.95;;;14.20;;
59468;SDS011;45277;52.768;18.262;2023-11-21T08:52:22;28.20;;;15.75;;
59468;SDS011;45277;52.768;18.262;2023-11-21T08:53:54;25.05;;;14.55;;
59468;SDS011;45277;52.768;18.262;2023-11-21T08:55:29;25.45;;;14.32;;